createdAt,value
2018-05-03T00:01:18.130Z,2.10
2018-05-03T00:03:46.382Z,2.40
2018-05-03T00:06:14.667Z,2.70
2018-05-03T00:08:42.922Z,2.10
2018-05-03T00:11:11.214Z,3.27
2018-05-03T00:13:39.473Z,2.27
2018-05-03T00:16:08.503Z,2.97
2018-05-03T00:18:36.814Z,2.70
2018-05-03T00:21:05.138Z,2.60
2018-05-03T00:23:33.394Z,2.33
2018-05-03T00:26:01.699Z,2.80
2018-05-03T00:28:29.963Z,3.20
2018-05-03T00:30:58.230Z,2.30
2018-05-03T00:33:26.498Z,1.77
2018-05-03T00:35:54.899Z,2.93
2018-05-03T00:38:23.160Z,2.83
2018-05-03T00:40:51.438Z,2.30
2018-05-03T00:43:19.724Z,4.53
2018-05-03T00:45:47.978Z,3.50
2018-05-03T00:48:17.022Z,2.50
2018-05-03T00:50:45.300Z,2.90
2018-05-03T00:53:13.547Z,3.23
2018-05-03T00:55:41.829Z,2.70
2018-05-03T00:58:10.079Z,1.93
2018-05-03T01:00:39.170Z,2.27
2018-05-03T01:03:08.286Z,2.53
2018-05-03T01:05:36.540Z,3.13
2018-05-03T01:08:05.587Z,2.80
2018-05-03T01:10:33.931Z,3.67
2018-05-03T01:13:02.180Z,2.97
2018-05-03T01:15:31.315Z,3.83
2018-05-03T01:17:59.560Z,2.60
2018-05-03T01:20:28.595Z,3.10
2018-05-03T01:22:56.968Z,2.33
2018-05-03T01:25:25.226Z,3.90
2018-05-03T01:27:53.491Z,3.33
2018-05-03T01:30:22.612Z,5.40
2018-05-03T01:32:50.879Z,3.30
2018-05-03T01:38:30.881Z,2.80
2018-05-03T01:40:59.239Z,2.60
2018-05-03T01:43:27.502Z,2.37
2018-05-03T01:45:55.787Z,2.60
2018-05-03T01:48:24.043Z,2.63
2018-05-03T01:50:52.310Z,3.55
2018-05-03T01:53:21.364Z,4.43
2018-05-03T01:55:49.704Z,3.20
2018-05-03T01:58:17.996Z,4.43
2018-05-03T02:00:46.274Z,3.40
2018-05-03T02:03:14.540Z,3.00
2018-05-03T02:05:42.799Z,2.73
2018-05-03T02:08:11.098Z,2.93
2018-05-03T02:10:39.363Z,3.77
2018-05-03T02:13:07.612Z,4.87
2018-05-03T02:15:36.653Z,4.65
2018-05-03T02:18:04.907Z,2.63
2018-05-03T02:20:33.231Z,3.60
2018-05-03T02:23:02.279Z,2.70
2018-05-03T02:25:30.549Z,3.70
2018-05-03T02:27:58.794Z,3.10
2018-05-03T02:30:27.072Z,2.40
2018-05-03T02:32:55.395Z,4.23
2018-05-03T02:35:23.679Z,3.53
2018-05-03T02:37:52.008Z,2.93
2018-05-03T02:40:20.209Z,3.00
2018-05-03T02:42:48.503Z,3.23
2018-05-03T02:45:16.772Z,3.70
2018-05-03T02:47:45.044Z,3.83
2018-05-03T02:50:13.326Z,3.77
2018-05-03T02:52:41.596Z,3.33
2018-05-03T02:55:09.866Z,2.83
2018-05-03T02:58:01.558Z,5.40
2018-05-03T03:00:53.278Z,3.30
2018-05-03T03:03:44.766Z,2.73
2018-05-03T03:06:36.539Z,2.67
2018-05-03T03:09:28.396Z,4.17
2018-05-03T03:15:42.810Z,2.97
2018-05-03T03:18:34.487Z,2.77
2018-05-03T03:25:01.799Z,2.77
2018-05-03T03:27:53.570Z,5.30
2018-05-03T03:30:46.024Z,3.80
2018-05-03T03:33:32.983Z,4.90
2018-05-03T03:36:19.047Z,7.50
2018-05-03T03:39:05.251Z,4.50
2018-05-03T03:41:38.967Z,4.10
2018-05-03T03:44:25.239Z,5.27
2018-05-03T03:46:54.261Z,4.20
2018-05-03T03:49:22.515Z,3.30
2018-05-03T03:51:50.797Z,5.83
2018-05-03T03:54:19.045Z,6.10
2018-05-03T03:56:48.281Z,3.03
2018-05-03T03:59:17.396Z,5.27
2018-05-03T04:01:45.657Z,2.40
2018-05-03T04:04:13.928Z,3.73
2018-05-03T04:06:42.187Z,3.25
2018-05-03T04:09:11.206Z,2.70
2018-05-03T04:11:39.478Z,5.77
2018-05-03T04:14:07.727Z,3.70
2018-05-03T04:16:36.906Z,4.00
2018-05-03T04:19:22.935Z,4.47
2018-05-03T04:22:08.964Z,4.62
2018-05-03T04:27:53.832Z,5.87
2018-05-03T04:30:23.019Z,5.00
2018-05-03T04:32:51.288Z,3.10
2018-05-03T04:35:19.530Z,6.20
2018-05-03T04:37:47.787Z,6.53
2018-05-03T04:40:16.117Z,4.20
2018-05-03T04:42:44.367Z,4.20
2018-05-03T04:45:13.422Z,4.37
2018-05-03T04:47:41.686Z,3.90
2018-05-03T04:50:09.935Z,4.47
2018-05-03T04:52:38.203Z,3.87
2018-05-03T04:55:06.482Z,3.70
2018-05-03T04:57:34.812Z,3.67
2018-05-03T05:00:03.092Z,3.80
2018-05-03T05:02:31.387Z,7.27
2018-05-03T05:04:59.734Z,2.93
2018-05-03T05:07:28.017Z,3.43
2018-05-03T05:09:56.359Z,3.23
2018-05-03T05:12:24.619Z,2.42
2018-05-03T05:14:52.924Z,3.10
2018-05-03T05:17:21.181Z,2.57
2018-05-03T05:19:49.443Z,3.80
2018-05-03T05:22:18.487Z,3.00
2018-05-03T05:24:46.841Z,2.90
2018-05-03T05:27:15.119Z,4.10
2018-05-03T05:29:43.406Z,3.03
2018-05-03T05:32:11.779Z,2.60
2018-05-03T05:34:40.066Z,3.10
2018-05-03T05:37:08.336Z,3.90
2018-05-03T05:39:36.611Z,2.87
2018-05-03T05:42:04.940Z,3.93
2018-05-03T05:44:33.973Z,3.80
2018-05-03T05:47:02.251Z,3.25
2018-05-03T05:49:30.513Z,3.40
2018-05-03T05:51:58.866Z,4.43
2018-05-03T05:54:27.895Z,4.30
2018-05-03T05:56:56.167Z,5.22
2018-05-03T05:59:24.443Z,3.30
2018-05-03T06:01:52.823Z,3.50
2018-05-03T06:04:21.116Z,4.10
2018-05-03T06:06:49.290Z,6.32
2018-05-03T06:09:17.563Z,4.33
2018-05-03T06:11:45.832Z,4.60
2018-05-03T06:14:14.088Z,4.07
2018-05-03T06:16:42.438Z,3.27
2018-05-03T06:19:10.723Z,10.23
2018-05-03T06:21:39.767Z,8.47
2018-05-03T06:24:08.027Z,13.73
2018-05-03T06:26:36.295Z,11.17
2018-05-03T06:29:04.571Z,10.07
2018-05-03T06:31:32.883Z,10.33
2018-05-03T06:34:01.235Z,11.30
2018-05-03T06:36:29.491Z,9.43
2018-05-03T06:38:58.643Z,8.73
2018-05-03T06:41:26.819Z,10.70
2018-05-03T06:43:55.158Z,8.87
2018-05-03T06:46:23.438Z,11.77
2018-05-03T06:48:51.702Z,10.27
2018-05-03T06:51:19.975Z,8.23
2018-05-03T06:53:48.265Z,7.93
2018-05-03T06:56:16.537Z,9.50
2018-05-03T06:58:44.815Z,9.37
2018-05-03T07:01:13.209Z,9.70
2018-05-03T07:03:41.473Z,9.30
2018-05-03T07:06:09.730Z,8.67
2018-05-03T07:08:38.029Z,10.27
2018-05-03T07:11:06.294Z,10.50
2018-05-03T07:13:34.595Z,10.20
2018-05-03T07:16:02.879Z,9.77
2018-05-03T07:18:31.154Z,8.57
2018-05-03T07:20:59.440Z,9.33
2018-05-03T07:23:27.725Z,9.33
2018-05-03T07:25:56.001Z,8.10
2018-05-03T07:28:24.278Z,9.17
2018-05-03T07:30:52.535Z,9.32
2018-05-03T07:33:20.803Z,9.67
2018-05-03T07:35:49.187Z,7.20
2018-05-03T07:38:17.468Z,8.70
2018-05-03T07:40:45.772Z,6.50
2018-05-03T07:43:14.011Z,6.60
2018-05-03T07:45:42.322Z,6.90
2018-05-03T07:48:10.590Z,9.53
2018-05-03T07:50:38.872Z,8.43
2018-05-03T07:53:07.135Z,7.60
2018-05-03T07:55:35.396Z,8.47
2018-05-03T07:58:03.676Z,7.40
2018-05-03T08:00:31.934Z,9.27
2018-05-03T08:03:00.219Z,7.73
2018-05-03T08:05:30.037Z,6.62
2018-05-03T08:07:58.315Z,5.83
2018-05-03T08:10:26.572Z,8.40
2018-05-03T08:12:54.853Z,6.53
2018-05-03T08:15:23.129Z,6.30
2018-05-03T08:17:51.424Z,8.37
2018-05-03T08:20:19.692Z,7.63
2018-05-03T08:22:47.970Z,5.90
2018-05-03T08:25:16.235Z,5.93
2018-05-03T08:27:44.503Z,5.77
2018-05-03T08:30:12.782Z,7.30
2018-05-03T08:32:41.046Z,8.00
2018-05-03T08:35:09.322Z,6.17
2018-05-03T08:37:37.586Z,8.83
2018-05-03T08:40:06.710Z,7.20
2018-05-03T08:42:34.981Z,5.47
2018-05-03T08:45:03.296Z,6.80
2018-05-03T08:47:31.741Z,4.83
2018-05-03T08:50:00.011Z,6.00
2018-05-03T08:52:28.280Z,5.00
2018-05-03T08:54:56.671Z,4.07
2018-05-03T08:57:24.939Z,5.70
2018-05-03T08:59:53.230Z,4.33
2018-05-03T09:02:21.512Z,6.40
2018-05-03T09:04:49.798Z,6.73
2018-05-03T09:07:18.164Z,5.53
2018-05-03T09:09:46.416Z,6.13
2018-05-03T09:12:14.713Z,4.43
2018-05-03T09:14:42.966Z,6.10
2018-05-03T09:17:11.253Z,5.30
2018-05-03T09:19:39.514Z,6.00
2018-05-03T09:22:08.575Z,6.40
2018-05-03T09:24:36.872Z,4.60
2018-05-03T09:27:05.913Z,4.63
2018-05-03T09:29:34.279Z,4.80
2018-05-03T09:32:02.542Z,7.53
2018-05-03T09:34:30.814Z,5.10
2018-05-03T09:36:59.090Z,3.43
2018-05-03T09:39:27.392Z,5.77
2018-05-03T09:41:55.666Z,5.60
2018-05-03T09:44:23.968Z,3.67
2018-05-03T09:46:52.233Z,2.90
2018-05-03T09:49:20.516Z,2.60
2018-05-03T09:51:48.779Z,4.03
2018-05-03T09:54:17.042Z,4.37
2018-05-03T09:56:45.315Z,3.53
2018-05-03T09:59:13.584Z,3.17
2018-05-03T10:01:41.864Z,4.03
2018-05-03T10:04:10.125Z,3.80
2018-05-03T10:06:39.170Z,2.87
2018-05-03T10:09:07.433Z,5.97
2018-05-03T10:11:36.543Z,3.57
2018-05-03T10:14:04.816Z,4.87
2018-05-03T10:16:33.171Z,4.40
2018-05-03T10:19:01.472Z,5.10
2018-05-03T10:21:29.727Z,4.50
2018-05-03T10:23:57.979Z,4.03
2018-05-03T10:26:26.267Z,3.50
2018-05-03T10:28:54.530Z,3.63
2018-05-03T10:31:23.571Z,4.37
2018-05-03T10:33:51.839Z,3.00
2018-05-03T10:36:20.189Z,2.90
2018-05-03T10:38:48.407Z,3.13
2018-05-03T10:41:16.680Z,4.90
2018-05-03T10:43:44.951Z,2.70
2018-05-03T10:46:13.215Z,5.27
2018-05-03T10:48:41.595Z,2.93
2018-05-03T10:51:09.787Z,3.23
2018-05-03T10:53:38.052Z,2.87
2018-05-03T10:56:06.335Z,4.23
2018-05-03T10:58:34.641Z,2.80
2018-05-03T11:01:02.977Z,2.97
2018-05-03T11:03:31.240Z,4.10
2018-05-03T11:05:59.519Z,3.20
2018-05-03T11:08:27.787Z,3.27
2018-05-03T11:10:56.063Z,2.90
2018-05-03T11:13:24.335Z,4.53
2018-05-03T11:15:52.603Z,2.57
2018-05-03T11:18:20.898Z,2.77
2018-05-03T11:20:49.175Z,3.45
2018-05-03T11:23:17.443Z,3.13
2018-05-03T11:25:45.727Z,3.10
2018-05-03T11:28:14.585Z,3.87
2018-05-03T11:30:43.634Z,3.70
2018-05-03T11:33:11.898Z,3.90
2018-05-03T11:35:40.162Z,3.30
2018-05-03T11:38:08.449Z,4.20
2018-05-03T11:40:36.715Z,4.10
2018-05-03T11:43:05.055Z,2.13
2018-05-03T11:45:35.111Z,3.83
2018-05-03T11:48:03.376Z,4.07
2018-05-03T11:50:31.679Z,4.40
2018-05-03T11:52:59.939Z,2.40
2018-05-03T11:55:28.221Z,3.00
2018-05-03T11:57:56.494Z,3.53
2018-05-03T12:00:24.770Z,3.50
2018-05-03T12:02:53.074Z,3.20
2018-05-03T12:05:21.415Z,2.30
2018-05-03T12:07:49.706Z,3.70
2018-05-03T12:10:17.972Z,2.50
2018-05-03T12:12:46.252Z,2.07
2018-05-03T12:15:14.503Z,4.60
2018-05-03T12:17:42.783Z,3.30
2018-05-03T12:20:11.075Z,2.40
2018-05-03T12:22:39.338Z,4.07
2018-05-03T12:25:07.629Z,2.40
2018-05-03T12:27:35.894Z,4.27
2018-05-03T12:30:04.165Z,3.33
2018-05-03T12:32:32.451Z,2.40
2018-05-03T12:35:00.757Z,2.80
2018-05-03T12:37:29.016Z,2.90
2018-05-03T12:39:57.314Z,4.43
2018-05-03T12:42:25.590Z,4.47
2018-05-03T12:44:53.856Z,2.90
2018-05-03T12:47:22.130Z,2.00
2018-05-03T12:49:50.440Z,3.00
2018-05-03T12:52:18.710Z,3.80
2018-05-03T12:54:46.978Z,4.57
2018-05-03T12:57:15.250Z,1.80
2018-05-03T12:59:43.527Z,2.30
2018-05-03T13:02:11.855Z,5.10
2018-05-03T13:04:40.903Z,3.07
2018-05-03T13:07:09.188Z,3.00
2018-05-03T13:09:37.521Z,2.67
2018-05-03T13:12:05.904Z,4.93
2018-05-03T13:14:34.198Z,3.20
2018-05-03T13:17:02.493Z,3.87
2018-05-03T13:19:30.838Z,3.47
2018-05-03T13:21:59.120Z,2.13
2018-05-03T13:24:27.383Z,4.37
2018-05-03T13:26:55.650Z,2.40
2018-05-03T13:29:23.985Z,2.50
2018-05-03T13:31:52.316Z,4.67
2018-05-03T13:34:20.601Z,2.83
2018-05-03T13:36:48.995Z,3.90
2018-05-03T13:39:17.350Z,2.77
2018-05-03T13:41:45.730Z,2.70
2018-05-03T13:44:14.008Z,1.87
2018-05-03T13:46:42.289Z,2.07
2018-05-03T13:49:10.596Z,4.10
2018-05-03T13:51:38.858Z,2.70
2018-05-03T13:54:07.132Z,1.83
2018-05-03T13:56:35.398Z,3.20
2018-05-03T13:59:03.683Z,3.37
2018-05-03T14:01:32.039Z,2.90
2018-05-03T14:04:00.334Z,1.83
2018-05-03T14:06:28.629Z,1.90
2018-05-03T14:08:56.968Z,3.70
2018-05-03T14:11:25.238Z,3.40
2018-05-03T14:13:53.526Z,5.20
2018-05-03T14:16:21.830Z,3.07
2018-05-03T14:18:50.086Z,4.30
2018-05-03T14:21:18.390Z,2.53
2018-05-03T14:23:46.659Z,2.10
2018-05-03T14:26:14.931Z,4.43
2018-05-03T14:28:43.297Z,4.00
2018-05-03T14:31:11.563Z,3.23
2018-05-03T14:33:39.849Z,3.33
2018-05-03T14:36:08.115Z,1.93
2018-05-03T14:38:36.494Z,2.03
2018-05-03T14:41:04.750Z,3.80
2018-05-03T14:43:33.048Z,3.03
2018-05-03T14:46:01.351Z,2.13
2018-05-03T14:48:29.614Z,3.00
2018-05-03T14:50:57.978Z,3.77
2018-05-03T14:53:26.240Z,1.57
2018-05-03T14:55:54.519Z,2.20
2018-05-03T14:58:23.591Z,2.33
2018-05-03T15:00:52.738Z,4.27
2018-05-03T15:03:21.004Z,2.87
2018-05-03T15:05:49.269Z,3.10
2018-05-03T15:08:17.545Z,3.40
2018-05-03T15:10:45.817Z,2.70
2018-05-03T15:13:14.084Z,2.33
2018-05-03T15:15:42.356Z,2.70
2018-05-03T15:18:11.480Z,3.57
2018-05-03T15:20:40.465Z,3.40
2018-05-03T15:23:08.732Z,2.87
2018-05-03T15:25:37.011Z,2.70
2018-05-03T15:28:05.307Z,3.17
2018-05-03T15:30:33.623Z,3.07
2018-05-03T15:33:01.889Z,3.43
2018-05-03T15:35:30.162Z,2.70
2018-05-03T15:37:58.448Z,3.27
2018-05-03T15:40:29.854Z,1.70
2018-05-03T15:42:58.134Z,4.00
2018-05-03T15:45:26.408Z,4.73
2018-05-03T15:47:54.675Z,2.30
2018-05-03T15:50:22.957Z,3.07
2018-05-03T15:52:51.231Z,2.03
2018-05-03T15:55:19.524Z,3.80
2018-05-03T15:57:47.887Z,3.00
2018-05-03T16:00:16.171Z,4.33
2018-05-03T16:02:44.451Z,4.47
2018-05-03T16:05:12.723Z,4.30
2018-05-03T16:07:41.168Z,5.53
2018-05-03T16:10:09.384Z,3.03
2018-05-03T16:12:37.662Z,3.80
2018-05-03T16:15:05.921Z,5.33
2018-05-03T16:17:34.205Z,3.73
2018-05-03T16:20:02.518Z,3.50
2018-05-03T16:22:30.776Z,2.93
2018-05-03T16:24:59.135Z,2.83
2018-05-03T16:27:27.435Z,2.63
2018-05-03T16:29:55.683Z,1.83
2018-05-03T16:32:23.962Z,2.10
2018-05-03T16:34:52.234Z,5.00
2018-05-03T16:37:20.532Z,2.93
2018-05-03T16:39:48.892Z,2.97
2018-05-03T16:42:17.291Z,3.57
2018-05-03T16:44:45.649Z,4.07
2018-05-03T16:47:13.927Z,3.40
2018-05-03T16:49:42.183Z,3.10
2018-05-03T16:52:10.464Z,2.23
2018-05-03T16:54:38.788Z,7.70
2018-05-03T16:57:07.793Z,2.17
2018-05-03T16:59:36.048Z,3.13
2018-05-03T17:02:04.401Z,4.47
2018-05-03T17:04:32.823Z,5.20
2018-05-03T17:07:01.135Z,4.77
2018-05-03T17:09:29.432Z,3.03
2018-05-03T17:11:57.696Z,3.23
2018-05-03T17:14:25.980Z,3.50
2018-05-03T17:16:54.265Z,2.57
2018-05-03T17:19:22.551Z,4.73
2018-05-03T17:21:50.819Z,2.93
2018-05-03T17:24:19.080Z,3.03
2018-05-03T17:26:47.390Z,4.72
2018-05-03T17:29:15.646Z,3.13
2018-05-03T17:31:43.919Z,3.13
2018-05-03T17:34:12.188Z,5.20
2018-05-03T17:36:40.474Z,2.60
2018-05-03T17:39:08.838Z,4.70
2018-05-03T17:41:37.036Z,2.60
2018-05-03T17:44:05.319Z,3.53
2018-05-03T17:46:33.587Z,5.13
2018-05-03T17:49:01.931Z,6.60
2018-05-03T17:51:30.957Z,3.63
2018-05-03T17:53:59.222Z,6.60
2018-05-03T17:56:27.504Z,1.87
2018-05-03T17:58:55.766Z,6.50
2018-05-03T18:01:24.040Z,3.33
2018-05-03T18:03:52.295Z,3.70
2018-05-03T18:06:21.328Z,3.20
2018-05-03T18:08:49.603Z,2.73
2018-05-03T18:11:17.872Z,5.43
2018-05-03T18:13:46.171Z,4.37
2018-05-03T18:16:14.538Z,3.80
2018-05-03T18:18:43.535Z,3.90
2018-05-03T18:21:11.819Z,3.50
2018-05-03T18:23:40.079Z,5.03
2018-05-03T18:26:08.445Z,3.20
2018-05-03T18:28:36.631Z,5.17
2018-05-03T18:31:05.135Z,2.53
2018-05-03T18:33:33.579Z,2.53
2018-05-03T18:36:02.611Z,4.20
2018-05-03T18:38:31.744Z,2.37
2018-05-03T18:41:00.961Z,5.87
2018-05-03T18:43:30.404Z,3.93
2018-05-03T18:46:00.195Z,2.53
2018-05-03T18:48:31.080Z,4.80
2018-05-03T18:51:01.006Z,4.53
2018-05-03T18:53:30.865Z,2.50
2018-05-03T18:56:01.341Z,7.53
2018-05-03T18:58:30.669Z,3.80
2018-05-03T19:00:59.895Z,3.77
2018-05-03T19:03:30.018Z,4.70
2018-05-03T19:05:59.388Z,2.93
2018-05-03T19:08:28.586Z,3.43
2018-05-03T19:10:57.860Z,5.45
2018-05-03T19:13:27.211Z,5.37
2018-05-03T19:15:57.325Z,3.90
2018-05-03T19:18:26.609Z,4.73
2018-05-03T19:20:56.217Z,4.10
2018-05-03T19:23:25.494Z,3.07
2018-05-03T19:25:54.844Z,2.03
2018-05-03T19:28:24.900Z,3.70
2018-05-03T19:30:54.284Z,2.87
2018-05-03T19:33:23.695Z,4.73
2018-05-03T19:35:53.120Z,4.93
2018-05-03T19:38:22.562Z,2.23
2018-05-03T19:40:52.896Z,4.07
2018-05-03T19:43:22.272Z,2.27
2018-05-03T19:45:51.661Z,6.37
2018-05-03T19:48:21.065Z,5.60
2018-05-03T19:50:50.371Z,7.90
2018-05-03T19:53:19.765Z,4.10
2018-05-03T19:55:49.101Z,4.10
2018-05-03T19:58:19.431Z,2.80
2018-05-03T20:00:50.127Z,4.53
2018-05-03T20:03:19.806Z,3.53
2018-05-03T20:05:49.124Z,7.53
2018-05-03T20:08:18.399Z,3.30
2018-05-03T20:10:48.561Z,3.40
2018-05-03T20:13:17.863Z,3.30
2018-05-03T20:15:47.265Z,8.93
2018-05-03T20:18:17.153Z,4.50
2018-05-03T20:20:47.835Z,2.70
2018-05-03T20:23:18.051Z,4.00
2018-05-03T20:25:47.438Z,3.40
2018-05-03T20:28:17.165Z,3.60
2018-05-03T20:30:47.858Z,5.78
2018-05-03T20:33:17.192Z,2.30
2018-05-03T20:35:47.771Z,3.90
2018-05-03T20:38:17.146Z,3.13
2018-05-03T20:40:47.670Z,2.20
2018-05-03T20:43:17.631Z,3.00
2018-05-03T20:45:47.789Z,3.90
2018-05-03T20:48:17.491Z,3.37
2018-05-03T20:50:47.388Z,4.20
2018-05-03T20:53:16.256Z,3.83
2018-05-03T20:55:46.645Z,1.33
2018-05-03T20:58:16.501Z,2.40
2018-05-03T21:00:46.249Z,4.80
2018-05-03T21:03:14.705Z,3.40
2018-05-03T21:05:43.943Z,7.70
2018-05-03T21:08:12.304Z,4.20
2018-05-03T21:10:41.342Z,3.10
2018-05-03T21:13:09.677Z,5.27
2018-05-03T21:15:38.099Z,2.60
2018-05-03T21:18:06.414Z,2.60
2018-05-03T21:20:34.768Z,5.20
2018-05-03T21:23:03.152Z,3.47
2018-05-03T21:25:31.421Z,1.80
2018-05-03T21:27:59.750Z,3.93
2018-05-03T21:30:28.089Z,1.60
2018-05-03T21:32:56.388Z,5.30
2018-05-03T21:35:24.678Z,3.90
2018-05-03T21:37:53.044Z,4.40
2018-05-03T21:40:21.325Z,5.07
2018-05-03T21:42:49.632Z,4.60
2018-05-03T21:45:17.910Z,5.13
2018-05-03T21:47:46.255Z,4.28
2018-05-03T21:50:14.572Z,4.50
2018-05-03T21:52:42.872Z,2.93
2018-05-03T21:55:11.241Z,2.60
2018-05-03T21:57:39.529Z,2.85
2018-05-03T22:00:07.800Z,4.50
2018-05-03T22:02:36.087Z,4.18
2018-05-03T22:05:04.395Z,3.17
2018-05-03T22:07:32.677Z,4.83
2018-05-03T22:10:00.959Z,2.50
2018-05-03T22:12:29.230Z,4.30
2018-05-03T22:14:57.536Z,6.10
2018-05-03T22:17:25.840Z,3.77
2018-05-03T22:19:54.200Z,3.83
2018-05-03T22:22:22.498Z,3.97
2018-05-03T22:24:50.826Z,4.00
2018-05-03T22:27:19.236Z,4.70
2018-05-03T22:29:47.539Z,2.73
2018-05-03T22:32:15.802Z,3.17
2018-05-03T22:34:44.076Z,5.07
2018-05-03T22:37:12.342Z,3.03
2018-05-03T22:39:40.620Z,4.37
2018-05-03T22:42:08.936Z,3.30
2018-05-03T22:44:37.190Z,3.53
2018-05-03T22:47:05.511Z,3.03
2018-05-03T22:49:33.803Z,6.20
2018-05-03T22:52:02.093Z,3.37
2018-05-03T22:54:30.377Z,3.27
2018-05-03T22:56:58.682Z,4.00
2018-05-03T22:59:26.981Z,3.50
2018-05-03T23:01:55.299Z,2.40
2018-05-03T23:04:23.617Z,7.43
2018-05-03T23:06:51.852Z,3.83
2018-05-03T23:09:20.193Z,1.93
2018-05-03T23:11:49.235Z,5.17
2018-05-03T23:14:17.529Z,2.17
2018-05-03T23:16:45.873Z,7.00
2018-05-03T23:19:14.163Z,2.73
2018-05-03T23:21:42.464Z,1.90
2018-05-03T23:24:10.737Z,1.80
2018-05-03T23:26:39.077Z,3.50
2018-05-03T23:29:07.405Z,4.73
2018-05-03T23:31:35.699Z,3.00
2018-05-03T23:34:04.023Z,4.63
2018-05-03T23:36:32.370Z,4.20
2018-05-03T23:39:00.734Z,2.80
2018-05-03T23:41:29.034Z,2.80
2018-05-03T23:43:57.341Z,3.80
2018-05-03T23:46:25.603Z,2.63
2018-05-03T23:48:53.961Z,5.60
2018-05-03T23:51:22.976Z,2.93
2018-05-03T23:53:51.265Z,6.13
2018-05-03T23:56:19.554Z,5.47
2018-05-03T23:58:47.884Z,3.90
